createdAt,value
2023-01-18T09:35:36.273Z,23.95
2023-01-18T09:38:03.856Z,25.20
2023-01-18T09:41:29.611Z,25.48
2023-01-18T09:44:06.224Z,24.95
2023-01-18T09:46:37.382Z,25.55
2023-01-18T09:49:07.372Z,24.83
2023-01-18T09:52:02.451Z,24.90
2023-01-18T09:54:40.170Z,27.08
2023-01-18T09:57:28.314Z,26.05
2023-01-18T09:59:58.077Z,29.42
2023-01-18T10:02:39.214Z,29.27
2023-01-18T10:05:14.394Z,31.03
2023-01-18T10:08:02.830Z,29.05
2023-01-18T10:10:43.969Z,30.40
2023-01-18T10:13:16.998Z,28.25
2023-01-18T10:15:45.163Z,26.27
2023-01-18T10:18:16.000Z,30.30
2023-01-18T10:20:58.159Z,29.77
2023-01-18T10:23:47.878Z,26.98
2023-01-18T10:26:19.179Z,30.15
2023-01-18T10:28:59.084Z,21.55
2023-01-18T10:31:44.839Z,27.90
2023-01-18T10:34:18.272Z,29.38
2023-01-18T10:36:50.906Z,30.35
2023-01-18T10:39:41.684Z,30.73
2023-01-18T10:42:19.836Z,30.63
2023-01-18T10:44:47.818Z,30.80
2023-01-18T10:47:20.127Z,30.73
2023-01-18T10:49:50.540Z,32.55
2023-01-18T10:52:28.474Z,31.92
2023-01-18T10:55:09.631Z,31.02
2023-01-18T10:57:48.003Z,32.17
2023-01-18T11:00:23.468Z,29.40
2023-01-18T11:02:52.225Z,28.95
2023-01-18T11:05:37.866Z,28.13
2023-01-18T11:08:21.492Z,29.25
2023-01-18T11:10:58.442Z,25.98
2023-01-18T11:13:42.496Z,27.27
2023-01-18T11:16:18.087Z,29.15
2023-01-18T11:19:06.136Z,25.65
2023-01-18T11:21:42.148Z,26.20
2023-01-18T11:24:13.890Z,26.83
2023-01-18T11:26:54.265Z,25.73
2023-01-18T11:29:27.000Z,25.83
2023-01-18T11:32:00.975Z,27.83
2023-01-18T11:34:37.696Z,26.38
2023-01-18T11:37:35.301Z,26.40
2023-01-18T11:40:22.185Z,27.45
2023-01-18T11:42:51.596Z,26.52
2023-01-18T11:45:36.496Z,27.35
2023-01-18T11:48:14.892Z,25.90
2023-01-18T11:50:57.186Z,27.17
2023-01-18T11:56:14.715Z,25.80
2023-01-18T11:58:42.298Z,26.02
2023-01-18T12:01:25.047Z,25.60
2023-01-18T12:03:59.073Z,26.08
2023-01-18T12:06:46.241Z,23.85
2023-01-18T12:09:26.029Z,24.63
2023-01-18T12:12:19.407Z,24.63
2023-01-18T12:14:56.097Z,26.02
2023-01-18T12:17:38.572Z,24.75
2023-01-18T12:20:32.830Z,26.30
2023-01-18T12:23:24.555Z,26.70
2023-01-18T12:26:19.858Z,26.05
2023-01-18T12:29:04.645Z,24.85
2023-01-18T12:32:20.490Z,25.75
2023-01-18T12:35:24.890Z,26.30
2023-01-18T12:37:58.780Z,26.85
2023-01-18T12:40:40.831Z,25.48
2023-01-18T12:43:14.268Z,24.50
2023-01-18T12:45:46.527Z,23.95
2023-01-18T12:48:31.534Z,25.83
2023-01-18T12:51:00.563Z,24.58
2023-01-18T12:53:43.361Z,24.92
2023-01-18T12:56:20.126Z,25.08
2023-01-18T12:59:11.316Z,25.10
2023-01-18T13:01:47.568Z,24.55
2023-01-18T13:04:40.449Z,25.67
2023-01-18T13:07:14.518Z,26.05
2023-01-18T13:09:47.075Z,24.38
2023-01-18T13:12:14.644Z,26.65
2023-01-18T13:14:51.936Z,27.08
2023-01-18T13:17:46.348Z,28.20
2023-01-18T13:20:48.620Z,29.83
2023-01-18T13:23:24.957Z,28.20
2023-01-18T13:26:17.237Z,30.55
2023-01-18T13:28:46.368Z,28.67
2023-01-18T13:31:14.165Z,29.40
2023-01-18T13:33:45.973Z,28.65
2023-01-18T13:36:19.769Z,29.05
2023-01-18T13:39:04.529Z,28.35
2023-01-18T13:41:32.282Z,28.17
2023-01-18T13:44:04.020Z,28.65
2023-01-18T13:46:37.185Z,28.33
2023-01-18T13:49:45.237Z,27.77
2023-01-18T13:52:32.175Z,29.20
2023-01-18T13:55:02.353Z,28.77
2023-01-18T13:57:34.291Z,29.40
2023-01-18T14:00:02.835Z,26.17
2023-01-18T14:02:42.318Z,28.15
2023-01-18T14:05:18.228Z,27.48
2023-01-18T14:07:49.276Z,29.50
2023-01-18T14:10:33.456Z,28.50
2023-01-18T14:13:03.987Z,29.65
2023-01-18T14:15:43.627Z,29.02
2023-01-18T14:18:27.487Z,28.83
2023-01-18T14:21:03.419Z,29.85
2023-01-18T14:23:45.895Z,29.67
2023-01-18T14:26:17.281Z,29.13
2023-01-18T14:29:00.618Z,28.30
2023-01-18T14:31:34.776Z,28.40
2023-01-18T14:34:24.327Z,28.27
2023-01-18T14:36:52.593Z,30.45
2023-01-18T14:39:21.649Z,28.20
2023-01-18T14:41:56.467Z,28.73
2023-01-18T14:44:40.708Z,28.55
2023-01-18T14:47:24.367Z,26.48
2023-01-18T14:49:53.461Z,28.48
2023-01-18T14:52:23.153Z,27.52
2023-01-18T14:54:55.920Z,26.83
2023-01-18T14:57:24.372Z,27.13
2023-01-18T14:59:57.024Z,24.58
2023-01-18T15:02:27.669Z,27.48
2023-01-18T15:05:22.211Z,29.67
2023-01-18T15:07:56.173Z,29.80
2023-01-18T15:10:24.790Z,26.77
2023-01-18T15:12:59.334Z,26.88
2023-01-18T15:15:42.219Z,29.10
2023-01-18T15:18:16.686Z,27.05
2023-01-18T15:21:09.795Z,28.98
2023-01-18T15:23:38.168Z,26.70
2023-01-18T15:26:06.318Z,27.67
2023-01-18T15:28:34.285Z,27.10
2023-01-18T15:31:12.674Z,26.98
2023-01-18T15:33:40.728Z,27.25
2023-01-18T15:36:09.869Z,30.45
2023-01-18T15:38:38.801Z,30.52
2023-01-18T15:41:12.708Z,29.70
2023-01-18T15:43:43.806Z,27.35
2023-01-18T15:46:14.284Z,29.38
2023-01-18T15:48:52.208Z,29.15
2023-01-18T15:51:22.588Z,30.80
2023-01-18T15:53:56.229Z,28.33
2023-01-18T15:56:30.734Z,28.80
2023-01-18T15:59:00.953Z,28.15
2023-01-18T16:01:35.590Z,27.98
2023-01-18T16:04:19.739Z,28.30
2023-01-18T16:06:47.138Z,29.42
2023-01-18T16:09:15.978Z,28.52
2023-01-18T16:11:56.586Z,29.95
2023-01-18T16:14:28.664Z,29.92
2023-01-18T16:17:20.130Z,27.95
2023-01-18T16:19:51.120Z,28.38
2023-01-18T16:22:31.658Z,27.45
2023-01-18T16:25:08.679Z,27.90
2023-01-18T16:27:52.240Z,28.30
2023-01-18T16:30:40.037Z,28.58
2023-01-18T16:33:25.376Z,28.55
2023-01-18T16:35:53.139Z,29.63
2023-01-18T16:38:20.735Z,29.77
2023-01-18T16:40:50.376Z,31.52
2023-01-18T16:43:28.579Z,28.98
2023-01-18T16:45:59.056Z,27.83
2023-01-18T16:48:29.139Z,27.05
2023-01-18T16:50:59.466Z,27.77
2023-01-18T16:53:27.780Z,30.33
2023-01-18T16:55:57.992Z,29.13
2023-01-18T16:58:28.813Z,27.25
2023-01-18T17:01:05.936Z,26.52
2023-01-18T17:03:36.053Z,27.70
2023-01-18T17:06:04.179Z,26.40
2023-01-18T17:08:31.833Z,26.02
2023-01-18T17:10:59.292Z,27.13
2023-01-18T17:13:27.110Z,25.95
2023-01-18T17:15:54.537Z,25.42
2023-01-18T17:18:25.788Z,26.25
2023-01-18T17:20:54.255Z,26.30
2023-01-18T17:23:21.965Z,25.77
2023-01-18T17:25:49.532Z,24.52
2023-01-18T17:28:19.171Z,27.60
2023-01-18T17:30:49.015Z,28.88
2023-01-18T17:33:22.753Z,27.65
2023-01-18T17:35:51.630Z,27.98
2023-01-18T17:38:25.105Z,26.20
2023-01-18T17:40:53.426Z,27.40
2023-01-18T17:43:33.037Z,26.75
2023-01-18T17:46:05.746Z,26.45
2023-01-18T17:48:33.793Z,27.35
2023-01-18T17:51:01.328Z,26.65
2023-01-18T17:53:28.858Z,26.92
2023-01-18T17:55:56.445Z,25.45
2023-01-18T17:58:23.907Z,26.30
2023-01-18T18:00:51.379Z,27.85
2023-01-18T18:03:20.174Z,27.80
2023-01-18T18:05:47.705Z,27.65
2023-01-18T18:08:15.217Z,28.15
2023-01-18T18:10:43.756Z,28.30
2023-01-18T18:13:11.295Z,28.80
2023-01-18T18:15:38.856Z,28.13
2023-01-18T18:18:12.350Z,27.75
2023-01-18T18:20:50.639Z,28.10
2023-01-18T18:23:18.118Z,27.90
2023-01-18T18:25:47.605Z,28.15
2023-01-18T18:28:14.990Z,29.15
2023-01-18T18:30:48.952Z,29.13
2023-01-18T18:33:16.516Z,27.95
2023-01-18T18:35:44.209Z,28.85
2023-01-18T18:38:15.445Z,29.48
2023-01-18T18:40:42.873Z,29.13
2023-01-18T18:43:10.585Z,28.13
2023-01-18T18:45:38.705Z,29.73
2023-01-18T18:48:06.539Z,28.42
2023-01-18T18:50:34.433Z,29.23
2023-01-18T18:53:02.164Z,27.05
2023-01-18T18:55:29.793Z,27.27
2023-01-18T18:57:57.385Z,27.38
2023-01-18T19:00:25.346Z,28.75
2023-01-18T19:02:58.281Z,27.27
2023-01-18T19:05:25.864Z,27.67
2023-01-18T19:07:53.325Z,27.13
2023-01-18T19:10:21.442Z,27.25
2023-01-18T19:12:48.922Z,27.60
2023-01-18T19:15:17.141Z,28.30
2023-01-18T19:17:44.644Z,28.17
2023-01-18T19:20:13.948Z,28.10
2023-01-18T19:22:41.550Z,28.55
2023-01-18T19:25:09.516Z,27.55
2023-01-18T19:27:36.913Z,27.80
2023-01-18T19:30:10.557Z,27.65
2023-01-18T19:32:38.636Z,28.88
2023-01-18T19:35:06.703Z,28.45
2023-01-18T19:37:34.198Z,27.90
2023-01-18T19:40:01.618Z,29.00
2023-01-18T19:42:29.154Z,29.33
2023-01-18T19:44:59.423Z,26.85
2023-01-18T19:47:26.954Z,28.80
2023-01-18T19:49:56.204Z,28.35
2023-01-18T19:52:24.569Z,28.45
2023-01-18T19:54:52.031Z,28.60
2023-01-18T19:57:19.535Z,28.15
2023-01-18T19:59:46.929Z,28.25
2023-01-18T20:02:14.423Z,28.52
2023-01-18T20:04:43.312Z,28.40
2023-01-18T20:07:12.800Z,28.70
2023-01-18T20:09:43.419Z,28.23
2023-01-18T20:12:14.885Z,30.17
2023-01-18T20:14:42.751Z,29.63
2023-01-18T20:17:14.329Z,29.73
2023-01-18T20:19:42.789Z,21.27
2023-01-18T20:22:10.926Z,29.90
2023-01-18T20:24:38.524Z,29.00
2023-01-18T20:27:15.301Z,29.38
2023-01-18T20:29:43.873Z,28.55
2023-01-18T20:32:19.283Z,28.17
2023-01-18T20:34:47.438Z,28.27
2023-01-18T20:37:15.814Z,29.38
2023-01-18T20:39:43.416Z,30.15
2023-01-18T20:42:11.025Z,30.23
2023-01-18T20:44:40.505Z,29.83
2023-01-18T20:47:08.090Z,30.73
2023-01-18T20:49:38.860Z,30.52
2023-01-18T20:52:07.607Z,29.20
2023-01-18T20:54:37.859Z,26.95
2023-01-18T20:57:06.603Z,27.98
2023-01-18T20:59:34.484Z,27.15
2023-01-18T21:02:03.284Z,29.50
2023-01-18T21:04:30.829Z,28.95
2023-01-18T21:06:58.457Z,29.73
2023-01-18T21:09:26.143Z,30.83
2023-01-18T21:11:53.638Z,29.23
2023-01-18T21:14:21.196Z,29.65
2023-01-18T21:16:48.793Z,29.38
2023-01-18T21:19:16.827Z,29.23
2023-01-18T21:21:44.695Z,29.90
2023-01-18T21:24:12.086Z,29.20
2023-01-18T21:26:39.666Z,30.77
2023-01-18T21:29:07.018Z,31.17
2023-01-18T21:31:34.501Z,30.98
2023-01-18T21:34:02.002Z,32.13
2023-01-18T21:36:29.461Z,33.60
2023-01-18T21:38:57.072Z,33.10
2023-01-18T21:41:43.254Z,32.65
2023-01-18T21:44:30.797Z,31.55
2023-01-18T21:46:58.923Z,31.50
2023-01-18T21:50:15.348Z,29.67
2023-01-18T21:52:51.181Z,32.20
2023-01-18T21:55:20.107Z,32.17
2023-01-18T21:58:07.487Z,31.95
2023-01-18T22:00:40.875Z,31.70
2023-01-18T22:03:15.312Z,31.13
2023-01-18T22:05:42.705Z,31.50
2023-01-18T22:08:10.313Z,30.17
2023-01-18T22:10:37.844Z,31.17
2023-01-18T22:13:05.263Z,28.45
2023-01-18T22:15:32.728Z,27.30
2023-01-18T22:18:00.796Z,27.60
2023-01-18T22:20:30.791Z,27.95
2023-01-18T22:22:58.371Z,27.15
2023-01-18T22:25:25.841Z,26.40
2023-01-18T22:27:53.374Z,27.23
2023-01-18T22:30:20.931Z,26.25
2023-01-18T22:32:48.359Z,27.20
2023-01-18T22:35:16.214Z,28.40
2023-01-18T22:37:43.650Z,26.90
2023-01-18T22:40:11.565Z,27.38
2023-01-18T22:42:38.988Z,26.88
2023-01-18T22:45:07.102Z,28.27
2023-01-18T22:47:34.564Z,28.75
2023-01-18T22:50:02.064Z,28.55
2023-01-18T22:52:29.533Z,30.38
2023-01-18T22:54:56.968Z,29.55
2023-01-18T22:57:24.441Z,26.85
2023-01-18T22:59:51.928Z,28.38
2023-01-18T23:02:19.421Z,28.70
2023-01-18T23:04:48.502Z,29.17
2023-01-18T23:07:16.399Z,29.85
2023-01-18T23:09:44.021Z,28.23
2023-01-18T23:12:11.450Z,27.52
2023-01-18T23:14:57.686Z,27.15
2023-01-18T23:17:40.162Z,28.42
2023-01-18T23:20:11.065Z,28.33
2023-01-18T23:22:38.563Z,28.33
2023-01-18T23:25:06.792Z,27.20
2023-01-18T23:27:34.272Z,27.55
2023-01-18T23:30:02.442Z,28.35
2023-01-18T23:32:33.018Z,27.55
2023-01-18T23:35:00.624Z,27.83
2023-01-18T23:37:28.311Z,27.63
2023-01-18T23:40:14.583Z,24.80
2023-01-18T23:43:01.000Z,25.42
2023-01-18T23:45:47.156Z,26.25
2023-01-18T23:48:35.521Z,26.92
2023-01-18T23:51:22.395Z,25.42
2023-01-18T23:54:08.328Z,25.60
2023-01-18T23:56:35.795Z,26.08
2023-01-18T23:59:03.321Z,26.20
